Time;durP1;ratioP1;P1;durP2;ratioP2;P2;SDS_P1;SDS_P2;PMS_P1;PMS_P2;Temp;Humidity;BMP_temperature;BMP_pressure;BME280_temperature;BME280_humidity;BME280_pressure;Samples;Min_cycle;Max_cycle;Signal;HPM_P1;HPM_P2
2022/05/18 00:02:06;;;;;;;13.23;11.77;;;;;;;;;;5024261;28;20256;-72
2022/05/18 00:04:32;;;;;;;14.20;12.80;;;;;;;;;;5023212;28;20528;-71
2022/05/18 00:06:58;;;;;;;12.55;11.35;;;;;;;;;;5023241;28;20210;-73
2022/05/18 00:09:24;;;;;;;13.18;11.88;;;;;;;;;;5024151;28;20206;-71
2022/05/18 00:11:50;;;;;;;12.65;11.35;;;;;;;;;;5024123;28;20217;-74
2022/05/18 00:14:17;;;;;;;13.48;12.07;;;;;;;;;;5024633;28;20218;-74
2022/05/18 00:16:43;;;;;;;14.55;12.63;;;;;;;;;;5022935;28;20214;-74
2022/05/18 00:19:09;;;;;;;14.25;12.85;;;;;;;;;;5024379;28;20175;-72
2022/05/18 00:21:35;;;;;;;14.25;12.85;;;;;;;;;;5024371;28;20658;-71
2022/05/18 00:24:01;;;;;;;14.50;13.00;;;;;;;;;;5023328;28;20922;-72
2022/05/18 00:26:27;;;;;;;15.07;12.75;;;;;;;;;;5023548;28;20182;-72
2022/05/18 00:28:53;;;;;;;13.70;12.30;;;;;;;;;;5024498;28;20186;-72
2022/05/18 00:31:20;;;;;;;13.93;12.45;;;;;;;;;;5023978;28;20187;-73
2022/05/18 00:33:47;;;;;;;15.25;13.65;;;;;;;;;;5024750;28;20222;-72
2022/05/18 00:36:13;;;;;;;15.27;13.68;;;;;;;;;;5023200;28;20592;-73
2022/05/18 00:38:39;;;;;;;15.30;13.35;;;;;;;;;;5024763;28;20269;-74
2022/05/18 00:41:05;;;;;;;14.80;13.20;;;;;;;;;;5023821;28;20249;-73
2022/05/18 00:43:31;;;;;;;15.95;14.35;;;;;;;;;;5024243;28;20190;-72
2022/05/18 00:45:58;;;;;;;15.20;13.70;;;;;;;;;;5023628;28;20189;-71
2022/05/18 00:48:24;;;;;;;16.15;14.35;;;;;;;;;;5024145;28;20281;-72
2022/05/18 00:50:52;;;;;;;16.52;14.93;;;;;;;;;;5024300;28;20206;-73
2022/05/18 00:53:26;;;;;;;16.00;14.30;;;;;;;;;;5023739;28;20226;-72
2022/05/18 00:55:54;;;;;;;16.02;14.43;;;;;;;;;;5023610;28;20662;-71
2022/05/18 00:58:27;;;;;;;16.00;14.40;;;;;;;;;;5024280;28;20237;-72
2022/05/18 01:00:54;;;;;;;17.20;15.40;;;;;;;;;;5024184;28;20491;-73
2022/05/18 01:03:20;;;;;;;18.70;15.45;;;;;;;;;;5024140;28;20201;-72
2022/05/18 01:05:49;;;;;;;18.10;16.20;;;;;;;;;;5023175;28;20194;-71
2022/05/18 01:08:17;;;;;;;17.30;15.32;;;;;;;;;;5023722;28;20214;-72
2022/05/18 01:10:43;;;;;;;19.02;16.15;;;;;;;;;;5027283;28;20234;-72
2022/05/18 01:13:09;;;;;;;17.25;15.55;;;;;;;;;;5027351;28;20542;-73
2022/05/18 01:15:35;;;;;;;18.00;16.10;;;;;;;;;;5027050;28;20427;-71
2022/05/18 01:18:02;;;;;;;17.50;15.70;;;;;;;;;;5026233;28;20207;-73
2022/05/18 01:20:35;;;;;;;18.58;16.58;;;;;;;;;;5022370;28;20187;-72
2022/05/18 01:23:09;;;;;;;17.70;15.48;;;;;;;;;;5027581;28;20193;-72
2022/05/18 01:25:51;;;;;;;19.45;16.88;;;;;;;;;;5026722;28;20531;-72
2022/05/18 01:28:17;;;;;;;18.65;16.75;;;;;;;;;;5027110;28;20198;-71
2022/05/18 01:30:46;;;;;;;19.67;16.88;;;;;;;;;;5027541;28;20221;-73
2022/05/18 01:33:12;;;;;;;20.77;17.05;;;;;;;;;;5027489;28;20266;-73
2022/05/18 01:35:41;;;;;;;19.13;16.88;;;;;;;;;;5026137;28;20215;-73
2022/05/18 01:38:07;;;;;;;19.65;17.33;;;;;;;;;;5027095;28;20733;-72
2022/05/18 01:40:36;;;;;;;20.65;18.45;;;;;;;;;;5027701;28;20290;-72
2022/05/18 01:43:11;;;;;;;20.92;17.58;;;;;;;;;;5027189;28;20185;-73
2022/05/18 01:45:37;;;;;;;19.17;17.17;;;;;;;;;;5026344;28;20178;-73
2022/05/18 01:48:11;;;;;;;19.45;16.85;;;;;;;;;;5026725;28;20597;-73
2022/05/18 01:50:38;;;;;;;18.08;16.20;;;;;;;;;;5027216;28;20271;-71
2022/05/18 01:53:04;;;;;;;17.08;15.38;;;;;;;;;;5026802;28;20189;-72
2022/05/18 01:55:30;;;;;;;18.55;15.85;;;;;;;;;;5026538;28;20198;-72
2022/05/18 01:57:56;;;;;;;17.52;15.63;;;;;;;;;;5026701;28;20194;-73
2022/05/18 02:00:23;;;;;;;16.52;14.88;;;;;;;;;;5027081;28;20186;-74
2022/05/18 02:02:49;;;;;;;16.17;14.50;;;;;;;;;;5026391;28;20183;-73
2022/05/18 02:05:15;;;;;;;14.50;13.10;;;;;;;;;;5026044;28;20183;-73
2022/05/18 02:07:41;;;;;;;14.02;12.63;;;;;;;;;;5026705;28;20210;-72
2022/05/18 02:10:07;;;;;;;13.25;11.95;;;;;;;;;;5026532;28;20213;-71
2022/05/18 02:12:34;;;;;;;13.82;12.30;;;;;;;;;;5026747;28;20202;-73
2022/05/18 02:15:00;;;;;;;14.32;12.50;;;;;;;;;;5026052;28;20182;-73
2022/05/18 02:17:26;;;;;;;13.85;12.48;;;;;;;;;;5025852;28;20210;-71
2022/05/18 02:19:52;;;;;;;13.88;12.48;;;;;;;;;;5026454;28;20194;-71
2022/05/18 02:22:18;;;;;;;13.13;11.82;;;;;;;;;;5026176;28;20243;-72
2022/05/18 02:24:44;;;;;;;12.90;11.25;;;;;;;;;;5026892;28;20186;-73
2022/05/18 02:27:11;;;;;;;17.20;12.98;;;;;;;;;;5025322;28;20205;-73
2022/05/18 02:29:37;;;;;;;15.02;13.45;;;;;;;;;;5026899;28;20190;-71
2022/05/18 02:32:03;;;;;;;14.90;13.00;;;;;;;;;;5026628;28;20206;-71
2022/05/18 02:34:29;;;;;;;15.52;13.68;;;;;;;;;;5026648;28;20358;-72
2022/05/18 02:36:55;;;;;;;14.98;13.48;;;;;;;;;;5025423;28;20233;-72
2022/05/18 02:39:21;;;;;;;14.23;12.80;;;;;;;;;;5020276;28;20236;-73
2022/05/18 02:41:48;;;;;;;14.77;13.13;;;;;;;;;;5026248;28;20643;-72
2022/05/18 02:44:15;;;;;;;16.52;13.25;;;;;;;;;;5026049;28;20187;-73
2022/05/18 02:46:41;;;;;;;15.63;14.02;;;;;;;;;;5024974;28;20183;-74
2022/05/18 02:49:07;;;;;;;15.70;14.10;;;;;;;;;;5026032;28;20191;-73
2022/05/18 02:51:33;;;;;;;15.02;12.98;;;;;;;;;;5025849;28;20294;-72
2022/05/18 02:54:01;;;;;;;16.27;13.13;;;;;;;;;;5026013;28;20186;-72
2022/05/18 02:56:27;;;;;;;18.67;16.73;;;;;;;;;;5025319;28;20187;-73
2022/05/18 02:58:55;;;;;;;16.35;14.57;;;;;;;;;;5026126;28;20182;-71
2022/05/18 03:01:22;;;;;;;20.45;18.30;;;;;;;;;;5025057;28;20624;-73
2022/05/18 03:03:49;;;;;;;23.77;18.75;;;;;;;;;;5026238;28;20183;-71
2022/05/18 03:06:16;;;;;;;21.58;19.25;;;;;;;;;;5024566;28;20179;-73
2022/05/18 03:08:43;;;;;;;20.75;18.50;;;;;;;;;;5025950;28;20325;-72
2022/05/18 03:11:09;;;;;;;22.17;19.88;;;;;;;;;;5025602;28;20215;-72
2022/05/18 03:13:35;;;;;;;22.92;20.35;;;;;;;;;;5025832;28;20270;-72
2022/05/18 03:16:02;;;;;;;24.92;22.33;;;;;;;;;;5024485;28;20186;-72
2022/05/18 03:18:28;;;;;;;24.33;21.48;;;;;;;;;;5025830;28;20221;-72
2022/05/18 03:23:40;;;;;;;22.80;20.38;;;;;;;;;;5026185;28;20198;-71
2022/05/18 03:26:08;;;;;;;22.98;20.55;;;;;;;;;;5024363;28;20188;-73
2022/05/18 03:28:34;;;;;;;25.67;22.15;;;;;;;;;;5025172;28;20682;-73
2022/05/18 03:31:00;;;;;;;24.25;21.77;;;;;;;;;;5024844;28;20215;-73
2022/05/18 03:33:26;;;;;;;24.13;21.55;;;;;;;;;;5024810;28;20271;-73
2022/05/18 03:35:53;;;;;;;24.17;21.58;;;;;;;;;;5024561;28;20244;-74
2022/05/18 03:38:20;;;;;;;24.50;21.92;;;;;;;;;;5024765;28;20206;-71
2022/05/18 03:40:46;;;;;;;23.05;20.63;;;;;;;;;;5025049;28;20849;-72
2022/05/18 03:43:12;;;;;;;21.80;19.60;;;;;;;;;;5025294;28;20219;-72
2022/05/18 03:45:39;;;;;;;23.95;21.13;;;;;;;;;;5024397;28;20659;-71
2022/05/18 03:48:06;;;;;;;22.58;20.08;;;;;;;;;;5024545;28;20587;-72
2022/05/18 03:50:32;;;;;;;23.27;19.38;;;;;;;;;;5024929;28;20183;-72
2022/05/18 03:53:00;;;;;;;22.75;20.08;;;;;;;;;;5024542;28;20538;-74
2022/05/18 03:55:27;;;;;;;21.73;19.42;;;;;;;;;;5023978;28;20183;-74
2022/05/18 03:57:53;;;;;;;23.33;20.98;;;;;;;;;;5023853;28;20221;-73
2022/05/18 04:00:19;;;;;;;22.17;19.33;;;;;;;;;;5023262;28;20178;-74
2022/05/18 04:02:47;;;;;;;23.75;20.55;;;;;;;;;;5023061;28;20565;-73
2022/05/18 04:05:15;;;;;;;24.00;20.65;;;;;;;;;;5021428;28;20697;-73
2022/05/18 04:07:41;;;;;;;22.48;20.15;;;;;;;;;;5022465;28;20203;-72
2022/05/18 04:10:08;;;;;;;21.67;19.13;;;;;;;;;;5022949;28;20768;-74
2022/05/18 04:12:34;;;;;;;21.38;19.13;;;;;;;;;;5022763;28;20214;-74
2022/05/18 04:15:00;;;;;;;22.77;19.98;;;;;;;;;;5023108;28;20171;-72
2022/05/18 04:17:26;;;;;;;20.75;18.55;;;;;;;;;;5023927;28;20207;-74
2022/05/18 04:19:53;;;;;;;20.75;18.30;;;;;;;;;;5024859;28;20229;-72
2022/05/18 04:22:19;;;;;;;22.00;19.35;;;;;;;;;;5024097;28;20183;-73
2022/05/18 04:24:45;;;;;;;20.08;17.98;;;;;;;;;;5025114;28;20197;-72
2022/05/18 04:27:11;;;;;;;19.63;17.63;;;;;;;;;;5023327;28;20207;-73
2022/05/18 04:29:38;;;;;;;20.00;17.90;;;;;;;;;;5024864;28;20183;-74
2022/05/18 04:32:05;;;;;;;19.30;17.30;;;;;;;;;;5024329;28;20217;-73
2022/05/18 04:34:31;;;;;;;20.40;17.55;;;;;;;;;;5023847;28;20710;-72
2022/05/18 04:36:57;;;;;;;18.83;16.88;;;;;;;;;;5023450;28;20658;-73
2022/05/18 04:39:23;;;;;;;19.08;16.85;;;;;;;;;;5024569;28;20171;-72
2022/05/18 04:41:49;;;;;;;17.00;15.32;;;;;;;;;;5023855;28;20199;-74
2022/05/18 04:44:15;;;;;;;16.02;14.52;;;;;;;;;;5027873;28;20236;-73
2022/05/18 04:46:41;;;;;;;17.30;15.52;;;;;;;;;;5026703;28;20672;-73
2022/05/18 04:49:08;;;;;;;17.85;14.93;;;;;;;;;;5027167;28;20190;-73
2022/05/18 04:51:34;;;;;;;18.13;14.90;;;;;;;;;;5027721;28;20218;-72
2022/05/18 04:54:00;;;;;;;18.45;14.70;;;;;;;;;;5028445;28;20614;-74
2022/05/18 04:56:26;;;;;;;16.30;14.63;;;;;;;;;;5026981;28;20194;-73
2022/05/18 04:58:53;;;;;;;15.40;13.82;;;;;;;;;;5028358;28;20215;-73
2022/05/18 05:01:19;;;;;;;13.45;12.05;;;;;;;;;;5029040;28;20167;-73
2022/05/18 05:03:45;;;;;;;14.30;12.90;;;;;;;;;;5028828;28;20198;-72
2022/05/18 05:06:17;;;;;;;14.55;13.10;;;;;;;;;;5027114;28;20276;-73
2022/05/18 05:08:44;;;;;;;14.63;13.13;;;;;;;;;;5029258;28;20219;-73
2022/05/18 05:11:10;;;;;;;15.55;12.70;;;;;;;;;;5027716;28;20281;-72
2022/05/18 05:13:37;;;;;;;14.48;12.95;;;;;;;;;;5010424;28;20639;-72
2022/05/18 05:16:04;;;;;;;15.25;13.82;;;;;;;;;;5023212;28;20198;-71
2022/05/18 05:18:31;;;;;;;15.73;14.18;;;;;;;;;;5026292;28;20206;-72
2022/05/18 05:20:57;;;;;;;15.00;13.38;;;;;;;;;;5027083;28;20194;-72
2022/05/18 05:23:24;;;;;;;15.43;13.93;;;;;;;;;;5026692;28;20182;-72
2022/05/18 05:25:51;;;;;;;15.18;13.70;;;;;;;;;;5026233;28;20206;-72
2022/05/18 05:28:17;;;;;;;14.93;13.52;;;;;;;;;;5026871;28;20203;-74
2022/05/18 05:30:43;;;;;;;16.20;14.63;;;;;;;;;;5025838;28;20209;-72
2022/05/18 05:33:10;;;;;;;14.95;13.55;;;;;;;;;;5024956;28;20570;-72
2022/05/18 05:35:36;;;;;;;14.98;13.48;;;;;;;;;;5024747;28;20233;-72
2022/05/18 05:38:02;;;;;;;14.00;12.70;;;;;;;;;;5026038;28;20617;-71
2022/05/18 05:40:28;;;;;;;14.35;12.98;;;;;;;;;;5026209;28;20692;-71
2022/05/18 05:42:54;;;;;;;14.75;13.35;;;;;;;;;;5026441;28;20793;-73
2022/05/18 05:45:34;;;;;;;15.65;14.15;;;;;;;;;;5025603;28;20183;-72
2022/05/18 05:48:01;;;;;;;14.95;13.43;;;;;;;;;;5026037;28;20199;-73
2022/05/18 05:50:27;;;;;;;15.73;14.15;;;;;;;;;;5026311;28;20477;-72
2022/05/18 05:52:53;;;;;;;14.07;12.77;;;;;;;;;;5026913;28;20232;-72
2022/05/18 05:55:20;;;;;;;14.27;12.85;;;;;;;;;;5025149;28;20305;-73
2022/05/18 05:57:46;;;;;;;14.55;13.05;;;;;;;;;;5026584;28;20211;-73
2022/05/18 06:00:12;;;;;;;13.45;12.15;;;;;;;;;;5026931;28;20522;-73
2022/05/18 06:02:38;;;;;;;13.70;12.32;;;;;;;;;;5022804;28;20463;-71
2022/05/18 06:05:05;;;;;;;13.57;12.27;;;;;;;;;;5026286;28;20186;-73
2022/05/18 06:07:31;;;;;;;15.25;12.77;;;;;;;;;;5021158;28;20194;-72
2022/05/18 06:09:57;;;;;;;13.77;11.90;;;;;;;;;;5026730;28;20203;-73
2022/05/18 06:12:28;;;;;;;12.43;11.13;;;;;;;;;;5026461;28;20265;-71
2022/05/18 06:14:54;;;;;;;14.07;11.40;;;;;;;;;;5026351;28;20178;-73
2022/05/18 06:17:20;;;;;;;12.77;11.52;;;;;;;;;;5025820;28;20202;-72
2022/05/18 06:19:46;;;;;;;12.95;11.63;;;;;;;;;;5026730;28;20189;-71
2022/05/18 06:22:12;;;;;;;12.18;10.98;;;;;;;;;;5025841;28;20534;-73
2022/05/18 06:24:40;;;;;;;11.98;10.77;;;;;;;;;;5026562;28;20201;-73
2022/05/18 06:27:06;;;;;;;11.35;10.30;;;;;;;;;;5025666;28;20221;-71
2022/05/18 06:29:32;;;;;;;11.30;10.27;;;;;;;;;;5026061;28;20187;-72
2022/05/18 06:31:58;;;;;;;12.45;11.25;;;;;;;;;;5025676;28;20310;-74
2022/05/18 06:34:24;;;;;;;12.32;11.23;;;;;;;;;;5026588;28;20191;-73
2022/05/18 06:36:50;;;;;;;11.98;10.88;;;;;;;;;;5024846;28;20206;-72
2022/05/18 06:39:18;;;;;;;11.93;10.82;;;;;;;;;;5026368;28;20175;-73
2022/05/18 06:41:44;;;;;;;12.02;10.93;;;;;;;;;;5025392;28;20222;-74
2022/05/18 06:44:11;;;;;;;11.70;10.60;;;;;;;;;;5026000;28;20452;-75
2022/05/18 06:46:37;;;;;;;11.75;10.75;;;;;;;;;;5025121;28;20175;-73
2022/05/18 06:49:04;;;;;;;11.27;10.27;;;;;;;;;;5025849;28;20183;-73
2022/05/18 06:51:32;;;;;;;11.10;10.13;;;;;;;;;;5025139;28;20218;-74
2022/05/18 06:53:58;;;;;;;11.13;10.07;;;;;;;;;;5026038;28;20170;-74
2022/05/18 06:56:25;;;;;;;13.40;10.48;;;;;;;;;;5024798;28;20194;-72
2022/05/18 06:58:52;;;;;;;11.43;10.25;;;;;;;;;;5025980;28;20366;-73
2022/05/18 07:01:19;;;;;;;11.80;10.77;;;;;;;;;;5025374;28;20530;-74
2022/05/18 07:03:45;;;;;;;12.15;10.98;;;;;;;;;;5025585;28;20183;-73
2022/05/18 07:06:12;;;;;;;11.25;10.13;;;;;;;;;;5024057;28;20187;-74
2022/05/18 07:08:38;;;;;;;11.40;10.30;;;;;;;;;;5025639;28;20291;-72
2022/05/18 07:11:04;;;;;;;11.13;10.02;;;;;;;;;;5024692;28;20607;-75
2022/05/18 07:13:34;;;;;;;11.38;10.27;;;;;;;;;;5025379;28;20171;-75
2022/05/18 07:16:00;;;;;;;11.15;9.57;;;;;;;;;;5024205;28;20601;-73
2022/05/18 07:18:29;;;;;;;10.57;9.50;;;;;;;;;;5024730;28;20199;-74
2022/05/18 07:20:55;;;;;;;11.50;10.38;;;;;;;;;;5025037;28;20186;-73
2022/05/18 07:23:21;;;;;;;10.93;9.90;;;;;;;;;;5025171;28;20183;-73
2022/05/18 07:25:47;;;;;;;10.82;9.82;;;;;;;;;;5024205;28;20187;-73
2022/05/18 07:28:13;;;;;;;11.98;10.88;;;;;;;;;;5024874;28;20203;-72
2022/05/18 07:30:39;;;;;;;11.82;10.73;;;;;;;;;;5025425;28;20554;-73
2022/05/18 07:33:06;;;;;;;11.18;10.05;;;;;;;;;;5024597;28;20609;-73
2022/05/18 07:35:33;;;;;;;11.68;10.48;;;;;;;;;;5024282;28;20174;-74
2022/05/18 07:37:59;;;;;;;11.75;10.32;;;;;;;;;;5024246;28;20203;-74
2022/05/18 07:40:25;;;;;;;11.35;10.25;;;;;;;;;;5025200;28;20211;-73
2022/05/18 07:42:56;;;;;;;11.95;10.45;;;;;;;;;;5024874;28;20602;-73
2022/05/18 07:45:25;;;;;;;13.63;10.95;;;;;;;;;;5024776;28;20526;-74
2022/05/18 07:47:54;;;;;;;11.40;10.35;;;;;;;;;;5025188;28;20233;-72
2022/05/18 07:50:22;;;;;;;11.68;10.48;;;;;;;;;;5026194;28;20566;-73
2022/05/18 07:52:48;;;;;;;11.95;10.88;;;;;;;;;;5025333;28;20217;-73
2022/05/18 07:55:14;;;;;;;11.95;10.75;;;;;;;;;;5022202;28;20175;-74
2022/05/18 07:57:40;;;;;;;11.73;10.63;;;;;;;;;;5023161;28;20226;-73
2022/05/18 08:00:08;;;;;;;13.07;11.05;;;;;;;;;;5024432;28;20171;-74
2022/05/18 08:02:34;;;;;;;11.77;10.60;;;;;;;;;;5018160;28;20186;-73
2022/05/18 08:05:01;;;;;;;12.35;11.02;;;;;;;;;;5012712;28;20175;-73
2022/05/18 08:07:27;;;;;;;11.40;10.20;;;;;;;;;;5023557;28;20211;-73
2022/05/18 08:15:24;;;;;;;12.27;11.07;;;;;;;;;;5023190;28;20244;-73
2022/05/18 08:17:50;;;;;;;11.55;10.38;;;;;;;;;;5023104;28;20202;-73
2022/05/18 08:20:18;;;;;;;11.07;10.07;;;;;;;;;;5024010;28;20186;-72
2022/05/18 08:22:44;;;;;;;10.15;9.25;;;;;;;;;;5023829;28;20399;-73
2022/05/18 08:25:11;;;;;;;11.18;9.90;;;;;;;;;;5015530;28;20182;-73
2022/05/18 08:27:42;;;;;;;10.38;9.27;;;;;;;;;;5023167;28;20199;-72
2022/05/18 08:30:08;;;;;;;11.75;9.02;;;;;;;;;;5023719;28;20183;-73
2022/05/18 08:32:34;;;;;;;9.18;8.27;;;;;;;;;;5019530;28;20215;-73
2022/05/18 08:35:00;;;;;;;8.52;7.72;;;;;;;;;;5022787;28;20220;-73
2022/05/18 08:37:26;;;;;;;8.98;8.07;;;;;;;;;;5023658;28;20197;-73
2022/05/18 08:39:52;;;;;;;9.05;8.25;;;;;;;;;;5023811;28;20186;-73
2022/05/18 08:42:20;;;;;;;9.73;8.40;;;;;;;;;;5024287;28;20175;-72
2022/05/18 08:44:46;;;;;;;7.90;7.15;;;;;;;;;;5023834;28;20193;-73
2022/05/18 08:47:32;;;;;;;7.53;6.68;;;;;;;;;;5022711;28;20718;-74
2022/05/18 08:50:04;;;;;;;7.80;6.93;;;;;;;;;;5023835;28;20190;-73
2022/05/18 08:52:42;;;;;;;10.40;7.65;;;;;;;;;;5024154;28;20301;-73
2022/05/18 08:55:27;;;;;;;8.60;7.03;;;;;;;;;;5022689;28;20182;-73
2022/05/18 08:57:54;;;;;;;7.68;6.90;;;;;;;;;;5024116;28;20206;-72
2022/05/18 09:00:27;;;;;;;8.52;7.05;;;;;;;;;;5024303;28;20186;-73
2022/05/18 09:03:03;;;;;;;8.40;6.57;;;;;;;;;;5023660;28;20240;-73
2022/05/18 09:05:35;;;;;;;8.18;6.55;;;;;;;;;;5022534;28;20179;-74
2022/05/18 09:08:15;;;;;;;7.22;6.55;;;;;;;;;;5023449;28;20601;-72
2022/05/18 09:10:54;;;;;;;7.63;6.40;;;;;;;;;;5024020;28;20217;-74
2022/05/18 09:13:20;;;;;;;9.20;8.25;;;;;;;;;;5023735;28;20179;-73
2022/05/18 09:15:56;;;;;;;8.10;7.40;;;;;;;;;;5022561;28;20635;-73
2022/05/18 09:18:25;;;;;;;7.47;6.78;;;;;;;;;;5023469;28;20209;-72
2022/05/18 09:21:10;;;;;;;7.82;6.80;;;;;;;;;;5023441;28;20191;-73
2022/05/18 09:23:40;;;;;;;8.05;7.35;;;;;;;;;;5023907;28;20179;-72
2022/05/18 09:26:24;;;;;;;8.00;7.13;;;;;;;;;;5022608;28;20183;-72
2022/05/18 09:28:51;;;;;;;6.97;6.28;;;;;;;;;;5023817;28;20278;-73
2022/05/18 09:31:23;;;;;;;7.60;6.80;;;;;;;;;;5026721;28;20199;-73
2022/05/18 09:34:02;;;;;;;7.30;6.60;;;;;;;;;;5027695;28;20190;-73
2022/05/18 09:36:34;;;;;;;8.65;6.90;;;;;;;;;;5026215;28;20269;-72
2022/05/18 09:39:09;;;;;;;6.88;6.25;;;;;;;;;;5026864;28;20178;-73
2022/05/18 09:41:56;;;;;;;7.00;6.30;;;;;;;;;;5027065;28;20182;-74
2022/05/18 09:44:31;;;;;;;6.88;6.28;;;;;;;;;;5026871;28;20187;-73
2022/05/18 09:46:58;;;;;;;6.72;6.10;;;;;;;;;;5025817;28;20696;-74
2022/05/18 09:49:29;;;;;;;7.82;6.43;;;;;;;;;;5026946;28;20292;-73
2022/05/18 09:51:56;;;;;;;7.10;6.40;;;;;;;;;;5026940;28;20214;-74
2022/05/18 09:54:23;;;;;;;6.85;5.95;;;;;;;;;;5026809;28;20183;-73
2022/05/18 09:57:01;;;;;;;6.72;5.80;;;;;;;;;;5026001;28;20198;-74
2022/05/18 09:59:32;;;;;;;7.30;6.22;;;;;;;;;;5026834;28;20660;-72
2022/05/18 10:07:45;;;;;;;5.22;4.82;;;;;;;;;;5026813;28;20426;-73
2022/05/18 10:10:13;;;;;;;5.97;5.45;;;;;;;;;;5026090;28;20356;-72
2022/05/18 10:12:43;;;;;;;5.35;4.85;;;;;;;;;;5026485;28;20207;-73
2022/05/18 10:15:19;;;;;;;5.78;5.25;;;;;;;;;;5025561;28;20213;-73
2022/05/18 10:17:47;;;;;;;7.03;5.65;;;;;;;;;;5026002;28;20285;-73
2022/05/18 10:20:25;;;;;;;5.28;4.72;;;;;;;;;;5026305;28;20179;-73
2022/05/18 10:22:52;;;;;;;4.80;4.30;;;;;;;;;;5027093;28;20676;-72
2022/05/18 10:25:26;;;;;;;7.43;4.07;;;;;;;;;;5026023;28;20190;-73
2022/05/18 10:27:52;;;;;;;7.47;4.28;;;;;;;;;;5026898;28;21359;-73
2022/05/18 10:30:29;;;;;;;4.95;4.40;;;;;;;;;;5026654;28;20187;-73
2022/05/18 10:33:27;;;;;;;5.07;4.53;;;;;;;;;;5026807;28;20507;-74
2022/05/18 10:35:54;;;;;;;4.13;3.78;;;;;;;;;;4995541;28;20606;-72
2022/05/18 10:38:31;;;;;;;4.93;4.53;;;;;;;;;;5025641;28;20206;-74
2022/05/18 10:41:03;;;;;;;4.65;4.25;;;;;;;;;;5025572;28;20179;-73
2022/05/18 10:43:38;;;;;;;4.45;4.05;;;;;;;;;;5025749;28;20499;-73
2022/05/18 10:46:09;;;;;;;5.55;4.35;;;;;;;;;;5023013;28;20538;-73
2022/05/18 10:48:35;;;;;;;3.63;3.33;;;;;;;;;;5026870;28;20207;-73
2022/05/18 10:51:11;;;;;;;3.85;3.42;;;;;;;;;;5026462;28;20652;-72
2022/05/18 10:53:42;;;;;;;4.75;3.78;;;;;;;;;;5026782;28;20178;-73
2022/05/18 10:56:14;;;;;;;6.95;3.97;;;;;;;;;;5025278;28;20175;-73
2022/05/18 10:58:45;;;;;;;4.47;3.80;;;;;;;;;;5026071;28;20241;-74
2022/05/18 11:01:11;;;;;;;4.72;3.45;;;;;;;;;;5025924;28;20605;-72
2022/05/18 11:03:46;;;;;;;3.30;3.10;;;;;;;;;;5026944;28;20177;-73
2022/05/18 11:06:23;;;;;;;4.85;3.58;;;;;;;;;;5025405;28;20217;-73
2022/05/18 11:08:50;;;;;;;4.10;2.92;;;;;;;;;;5027045;28;20191;-73
2022/05/18 11:11:35;;;;;;;3.88;3.50;;;;;;;;;;5026360;28;20199;-73
2022/05/18 11:14:21;;;;;;;4.32;4.03;;;;;;;;;;5026340;28;20225;-72
2022/05/18 11:16:50;;;;;;;3.72;2.92;;;;;;;;;;5025246;28;20208;-72
2022/05/18 11:19:30;;;;;;;3.92;3.63;;;;;;;;;;5026395;28;20614;-73
2022/05/18 11:22:03;;;;;;;4.07;3.67;;;;;;;;;;5025887;28;20302;-73
2022/05/18 11:24:41;;;;;;;3.60;3.30;;;;;;;;;;5025583;28;20191;-73
2022/05/18 11:27:26;;;;;;;4.88;2.92;;;;;;;;;;5024274;28;20195;-75
2022/05/18 11:29:52;;;;;;;3.70;3.40;;;;;;;;;;5025523;28;20232;-73
2022/05/18 11:32:31;;;;;;;4.35;3.22;;;;;;;;;;5023488;28;20693;-72
2022/05/18 11:35:30;;;;;;;3.85;3.55;;;;;;;;;;5024998;28;20189;-74
2022/05/18 11:38:02;;;;;;;5.13;3.60;;;;;;;;;;5002263;28;20718;-72
2022/05/18 11:40:44;;;;;;;3.47;3.13;;;;;;;;;;5022611;28;20623;-73
2022/05/18 11:51:45;;;;;;;3.97;3.67;;;;;;;;;;5704669;22;20571;-73
2022/05/18 11:54:37;;;;;;;5.30;3.30;;;;;;;;;;5013836;28;20554;-73
2022/05/18 12:00:08;;;;;;;4.30;3.33;;;;;;;;;;5017558;28;20604;-73
2022/05/18 12:02:34;;;;;;;3.55;3.30;;;;;;;;;;5016105;28;20176;-73
2022/05/18 12:05:19;;;;;;;3.92;3.50;;;;;;;;;;5008830;28;20523;-73
2022/05/18 12:07:58;;;;;;;4.47;3.13;;;;;;;;;;5017528;28;20206;-73
2022/05/18 12:17:07;;;;;;;4.57;3.83;;;;;;;;;;5011759;28;20609;-74
2022/05/18 12:19:42;;;;;;;5.53;3.33;;;;;;;;;;5010524;28;20229;-74
2022/05/18 12:22:11;;;;;;;4.18;3.08;;;;;;;;;;5016325;28;20182;-74
2022/05/18 12:27:42;;;;;;;3.25;2.92;;;;;;;;;;5008051;28;20796;-74
2022/05/18 12:30:09;;;;;;;4.32;2.92;;;;;;;;;;5009187;28;20604;-73
2022/05/18 12:32:49;;;;;;;4.10;3.05;;;;;;;;;;5007734;28;20219;-74
2022/05/18 12:35:17;;;;;;;3.63;3.30;;;;;;;;;;5009364;28;20699;-73
2022/05/18 12:37:51;;;;;;;4.65;3.30;;;;;;;;;;5004653;28;20199;-73
2022/05/18 12:40:20;;;;;;;5.28;3.50;;;;;;;;;;5009240;28;20286;-73
2022/05/18 12:42:57;;;;;;;3.28;2.92;;;;;;;;;;5005271;28;20195;-73
2022/05/18 12:48:48;;;;;;;3.83;3.00;;;;;;;;;;5005076;28;20210;-74
2022/05/18 12:54:24;;;;;;;3.65;3.28;;;;;;;;;;5004471;28;20662;-73
2022/05/18 12:57:09;;;;;;;5.70;3.30;;;;;;;;;;5003657;28;20674;-74
2022/05/18 13:00:04;;;;;;;3.30;3.00;;;;;;;;;;5004339;28;20266;-72
2022/05/18 13:02:39;;;;;;;4.55;3.03;;;;;;;;;;4928475;28;20202;-73
2022/05/18 13:05:26;;;;;;;4.65;3.10;;;;;;;;;;5011563;28;20175;-72
2022/05/18 13:07:52;;;;;;;3.50;3.30;;;;;;;;;;4998871;28;20218;-74
2022/05/18 13:10:22;;;;;;;4.20;3.35;;;;;;;;;;5013196;28;20623;-73
2022/05/18 13:13:01;;;;;;;4.07;2.88;;;;;;;;;;5017882;28;20208;-73
2022/05/18 13:15:51;;;;;;;3.80;2.60;;;;;;;;;;5008253;28;20187;-73
2022/05/18 13:18:18;;;;;;;3.47;3.15;;;;;;;;;;5009020;28;20187;-73
2022/05/18 13:20:48;;;;;;;3.38;2.80;;;;;;;;;;4989777;28;20234;-73
2022/05/18 13:23:29;;;;;;;3.28;2.97;;;;;;;;;;4989563;28;20203;-72
2022/05/18 13:25:59;;;;;;;3.55;3.22;;;;;;;;;;4993112;28;20322;-73
2022/05/18 13:28:26;;;;;;;2.67;2.47;;;;;;;;;;5007905;28;20249;-73
2022/05/18 13:30:57;;;;;;;3.45;2.88;;;;;;;;;;5007889;28;20757;-73
2022/05/18 13:33:24;;;;;;;4.20;2.63;;;;;;;;;;5008854;28;20179;-73
2022/05/18 13:35:50;;;;;;;4.53;3.05;;;;;;;;;;5011880;28;20545;-73
2022/05/18 13:38:26;;;;;;;4.85;2.80;;;;;;;;;;4994395;28;20207;-74
2022/05/18 13:41:03;;;;;;;3.25;2.60;;;;;;;;;;5007642;28;20244;-73
2022/05/18 13:43:31;;;;;;;4.22;2.78;;;;;;;;;;5002846;28;21100;-74
2022/05/18 13:46:00;;;;;;;4.53;2.80;;;;;;;;;;5006543;28;20179;-73
2022/05/18 13:48:27;;;;;;;2.70;2.50;;;;;;;;;;5007143;28;20199;-74
2022/05/18 13:50:54;;;;;;;3.15;2.95;;;;;;;;;;5013887;28;20551;-73
2022/05/18 13:53:34;;;;;;;3.17;2.67;;;;;;;;;;5007467;28;20281;-72
2022/05/18 13:56:11;;;;;;;2.75;2.50;;;;;;;;;;5008294;28;20542;-73
2022/05/18 13:58:41;;;;;;;3.25;2.38;;;;;;;;;;5012714;28;20199;-72
2022/05/18 14:01:12;;;;;;;3.70;3.10;;;;;;;;;;5007201;28;20187;-73
2022/05/18 14:03:40;;;;;;;3.58;2.50;;;;;;;;;;5011486;28;20183;-73
2022/05/18 14:06:08;;;;;;;3.63;2.80;;;;;;;;;;5016810;28;20190;-73
2022/05/18 14:08:35;;;;;;;4.72;2.45;;;;;;;;;;5006813;28;20612;-75
2022/05/18 14:11:03;;;;;;;5.22;3.05;;;;;;;;;;5019665;28;20237;-73
2022/05/18 14:13:29;;;;;;;2.92;2.50;;;;;;;;;;5006818;28;20183;-74
2022/05/18 14:15:56;;;;;;;4.45;2.80;;;;;;;;;;5013068;28;20271;-73
2022/05/18 14:18:40;;;;;;;3.00;2.70;;;;;;;;;;5016992;28;20198;-74
2022/05/18 14:21:10;;;;;;;5.10;2.70;;;;;;;;;;5012895;28;20198;-75
2022/05/18 14:23:44;;;;;;;3.67;2.30;;;;;;;;;;4997418;28;20191;-75
2022/05/18 14:26:13;;;;;;;3.65;2.60;;;;;;;;;;5011608;28;20643;-73
2022/05/18 14:28:43;;;;;;;4.55;2.50;;;;;;;;;;5014289;28;20211;-73
2022/05/18 14:31:12;;;;;;;2.70;2.50;;;;;;;;;;5014933;28;20203;-72
2022/05/18 14:33:41;;;;;;;2.85;2.40;;;;;;;;;;4994708;28;20651;-72
2022/05/18 14:36:26;;;;;;;5.93;3.22;;;;;;;;;;5008692;28;20179;-74
2022/05/18 14:38:54;;;;;;;3.35;2.53;;;;;;;;;;4997837;28;20630;-72
2022/05/18 14:41:22;;;;;;;3.92;2.55;;;;;;;;;;5018397;28;20183;-69
2022/05/18 14:43:49;;;;;;;2.80;2.40;;;;;;;;;;5017346;28;20298;-70
2022/05/18 14:46:20;;;;;;;4.15;2.40;;;;;;;;;;5012281;28;20222;-69
2022/05/18 14:48:49;;;;;;;2.88;2.40;;;;;;;;;;5015623;28;20713;-69
2022/05/18 14:51:30;;;;;;;2.42;2.20;;;;;;;;;;5009874;28;20214;-69
2022/05/18 14:53:57;;;;;;;3.72;2.28;;;;;;;;;;5013367;28;20249;-68
2022/05/18 14:56:26;;;;;;;4.30;2.50;;;;;;;;;;5009743;28;20194;-69
2022/05/18 14:58:56;;;;;;;6.22;2.78;;;;;;;;;;5015075;28;20241;-68
2022/05/18 15:01:34;;;;;;;5.35;3.03;;;;;;;;;;5016287;28;20635;-68
2022/05/18 15:04:19;;;;;;;3.08;2.58;;;;;;;;;;5012859;28;20321;-68
2022/05/18 15:06:48;;;;;;;3.78;2.70;;;;;;;;;;5012035;28;20208;-68
2022/05/18 15:09:17;;;;;;;2.92;2.72;;;;;;;;;;5012826;28;20183;-68
2022/05/18 15:11:45;;;;;;;3.92;2.53;;;;;;;;;;5006044;28;20207;-68
2022/05/18 15:14:17;;;;;;;2.65;2.45;;;;;;;;;;5009996;28;20226;-68
2022/05/18 15:16:45;;;;;;;3.38;2.90;;;;;;;;;;5010421;28;20603;-67
2022/05/18 15:19:32;;;;;;;3.15;2.13;;;;;;;;;;5006283;28;20232;-68
2022/05/18 15:22:05;;;;;;;2.58;2.28;;;;;;;;;;4990710;28;20183;-69
2022/05/18 15:24:32;;;;;;;3.55;2.70;;;;;;;;;;5012534;28;20171;-68